sensor_id;sensor_type;location;lat;lon;timestamp;pressure;altitude;pressure_sealevel;temperature;humidity
63607;BME280;51327;52.466;-1.938;2022-08-19T00:00:15;99424.09;;;16.37;100.00
63607;BME280;51327;52.466;-1.938;2022-08-19T00:02:43;99423.09;;;16.38;100.00
63607;BME280;51327;52.466;-1.938;2022-08-19T00:05:11;99423.50;;;16.43;100.00
63607;BME280;51327;52.466;-1.938;2022-08-19T00:07:37;99416.72;;;16.49;100.00
63607;BME280;51327;52.466;-1.938;2022-08-19T00:10:06;99420.09;;;16.51;100.00
63607;BME280;51327;52.466;-1.938;2022-08-19T00:12:34;99418.09;;;16.53;100.00
63607;BME280;51327;52.466;-1.938;2022-08-19T00:15:04;99419.66;;;16.56;100.00
63607;BME280;51327;52.466;-1.938;2022-08-19T00:17:32;99429.44;;;16.57;100.00
63607;BME280;51327;52.466;-1.938;2022-08-19T00:20:00;99434.84;;;16.57;100.00
63607;BME280;51327;52.466;-1.938;2022-08-19T00:22:27;99439.22;;;16.58;100.00
63607;BME280;51327;52.466;-1.938;2022-08-19T00:24:55;99439.91;;;16.60;100.00
63607;BME280;51327;52.466;-1.938;2022-08-19T00:27:22;99434.25;;;16.63;100.00
63607;BME280;51327;52.466;-1.938;2022-08-19T00:29:50;99434.09;;;16.64;100.00
63607;BME280;51327;52.466;-1.938;2022-08-19T00:32:18;99428.56;;;16.66;100.00
63607;BME280;51327;52.466;-1.938;2022-08-19T00:34:45;99425.00;;;16.65;100.00
63607;BME280;51327;52.466;-1.938;2022-08-19T00:37:13;99421.63;;;16.63;100.00
63607;BME280;51327;52.466;-1.938;2022-08-19T00:39:40;99425.16;;;16.64;100.00
63607;BME280;51327;52.466;-1.938;2022-08-19T00:42:08;99415.66;;;16.60;100.00
63607;BME280;51327;52.466;-1.938;2022-08-19T00:44:35;99418.78;;;16.55;100.00
63607;BME280;51327;52.466;-1.938;2022-08-19T00:47:03;99413.84;;;16.50;100.00
63607;BME280;51327;52.466;-1.938;2022-08-19T00:49:35;99402.34;;;16.48;100.00
63607;BME280;51327;52.466;-1.938;2022-08-19T00:52:25;99417.16;;;16.44;100.00
63607;BME280;51327;52.466;-1.938;2022-08-19T00:54:50;99409.34;;;16.41;100.00
63607;BME280;51327;52.466;-1.938;2022-08-19T00:57:20;99413.16;;;16.39;100.00
63607;BME280;51327;52.466;-1.938;2022-08-19T00:59:50;99413.31;;;16.37;100.00
63607;BME280;51327;52.466;-1.938;2022-08-19T01:02:19;99414.47;;;16.35;100.00
63607;BME280;51327;52.466;-1.938;2022-08-19T01:04:47;99418.16;;;16.34;100.00
63607;BME280;51327;52.466;-1.938;2022-08-19T01:07:12;99427.09;;;16.34;100.00
63607;BME280;51327;52.466;-1.938;2022-08-19T01:09:38;99428.09;;;16.33;100.00
63607;BME280;51327;52.466;-1.938;2022-08-19T01:12:05;99425.53;;;16.32;100.00
63607;BME280;51327;52.466;-1.938;2022-08-19T01:14:33;99430.09;;;16.31;100.00
63607;BME280;51327;52.466;-1.938;2022-08-19T01:17:02;99434.63;;;16.31;100.00
63607;BME280;51327;52.466;-1.938;2022-08-19T01:19:48;99428.38;;;16.30;100.00
63607;BME280;51327;52.466;-1.938;2022-08-19T01:24:43;99430.09;;;16.31;100.00
63607;BME280;51327;52.466;-1.938;2022-08-19T01:27:09;99433.75;;;16.30;100.00
63607;BME280;51327;52.466;-1.938;2022-08-19T01:29:38;99431.38;;;16.27;100.00
63607;BME280;51327;52.466;-1.938;2022-08-19T01:32:07;99429.69;;;16.26;100.00
63607;BME280;51327;52.466;-1.938;2022-08-19T01:34:35;99431.50;;;16.25;100.00
63607;BME280;51327;52.466;-1.938;2022-08-19T01:37:10;99432.09;;;16.19;100.00
63607;BME280;51327;52.466;-1.938;2022-08-19T01:39:39;99426.28;;;16.14;100.00
63607;BME280;51327;52.466;-1.938;2022-08-19T01:42:07;99429.56;;;16.08;100.00
63607;BME280;51327;52.466;-1.938;2022-08-19T01:44:36;99435.38;;;16.03;100.00
63607;BME280;51327;52.466;-1.938;2022-08-19T01:47:02;99442.75;;;16.01;100.00
63607;BME280;51327;52.466;-1.938;2022-08-19T01:49:30;99444.44;;;16.02;100.00
63607;BME280;51327;52.466;-1.938;2022-08-19T01:51:59;99443.28;;;16.05;100.00
63607;BME280;51327;52.466;-1.938;2022-08-19T01:54:26;99446.56;;;16.08;100.00
63607;BME280;51327;52.466;-1.938;2022-08-19T01:57:05;99444.41;;;16.12;100.00
63607;BME280;51327;52.466;-1.938;2022-08-19T01:59:34;99454.94;;;16.15;100.00
63607;BME280;51327;52.466;-1.938;2022-08-19T02:02:04;99455.75;;;16.16;100.00
63607;BME280;51327;52.466;-1.938;2022-08-19T02:04:37;99454.94;;;16.15;100.00
63607;BME280;51327;52.466;-1.938;2022-08-19T02:07:06;99451.38;;;16.15;100.00
63607;BME280;51327;52.466;-1.938;2022-08-19T02:09:35;99448.81;;;16.13;100.00
63607;BME280;51327;52.466;-1.938;2022-08-19T02:12:00;99446.69;;;16.07;100.00
63607;BME280;51327;52.466;-1.938;2022-08-19T02:14:26;99449.09;;;16.00;100.00
63607;BME280;51327;52.466;-1.938;2022-08-19T02:16:54;99451.69;;;15.92;100.00
63607;BME280;51327;52.466;-1.938;2022-08-19T02:19:19;99450.41;;;15.86;100.00
63607;BME280;51327;52.466;-1.938;2022-08-19T02:21:45;99446.44;;;15.81;100.00
63607;BME280;51327;52.466;-1.938;2022-08-19T02:24:12;99456.06;;;15.74;100.00
63607;BME280;51327;52.466;-1.938;2022-08-19T02:26:38;99453.19;;;15.65;100.00
63607;BME280;51327;52.466;-1.938;2022-08-19T02:29:03;99462.66;;;15.60;100.00
63607;BME280;51327;52.466;-1.938;2022-08-19T02:31:30;99468.63;;;15.54;100.00
63607;BME280;51327;52.466;-1.938;2022-08-19T02:33:56;99456.72;;;15.47;100.00
63607;BME280;51327;52.466;-1.938;2022-08-19T02:36:23;99472.28;;;15.43;100.00
63607;BME280;51327;52.466;-1.938;2022-08-19T02:38:51;99471.97;;;15.36;100.00
63607;BME280;51327;52.466;-1.938;2022-08-19T02:41:18;99458.81;;;15.33;100.00
63607;BME280;51327;52.466;-1.938;2022-08-19T02:43:44;99461.34;;;15.35;100.00
63607;BME280;51327;52.466;-1.938;2022-08-19T02:46:16;99463.91;;;15.36;100.00
63607;BME280;51327;52.466;-1.938;2022-08-19T02:48:45;99466.47;;;15.38;100.00
63607;BME280;51327;52.466;-1.938;2022-08-19T02:51:16;99461.94;;;15.38;100.00
63607;BME280;51327;52.466;-1.938;2022-08-19T02:53:42;99468.03;;;15.40;100.00
63607;BME280;51327;52.466;-1.938;2022-08-19T02:56:08;99475.09;;;15.41;100.00
63607;BME280;51327;52.466;-1.938;2022-08-19T02:58:35;99464.63;;;15.38;100.00
63607;BME280;51327;52.466;-1.938;2022-08-19T03:01:03;99472.97;;;15.35;100.00
63607;BME280;51327;52.466;-1.938;2022-08-19T03:03:31;99476.94;;;15.31;100.00
63607;BME280;51327;52.466;-1.938;2022-08-19T03:06:03;99478.91;;;15.29;100.00
63607;BME280;51327;52.466;-1.938;2022-08-19T03:08:29;99484.56;;;15.26;100.00
63607;BME280;51327;52.466;-1.938;2022-08-19T03:10:55;99481.28;;;15.22;100.00
63607;BME280;51327;52.466;-1.938;2022-08-19T03:13:22;99488.66;;;15.20;100.00
63607;BME280;51327;52.466;-1.938;2022-08-19T03:15:50;99491.63;;;15.17;100.00
63607;BME280;51327;52.466;-1.938;2022-08-19T03:18:18;99489.47;;;15.11;100.00
63607;BME280;51327;52.466;-1.938;2022-08-19T03:20:44;99489.88;;;15.07;100.00
63607;BME280;51327;52.466;-1.938;2022-08-19T03:23:10;99486.88;;;15.00;100.00
63607;BME280;51327;52.466;-1.938;2022-08-19T03:25:40;99493.66;;;14.94;100.00
63607;BME280;51327;52.466;-1.938;2022-08-19T03:28:07;99493.19;;;14.89;100.00
63607;BME280;51327;52.466;-1.938;2022-08-19T03:30:32;99493.59;;;14.85;100.00
63607;BME280;51327;52.466;-1.938;2022-08-19T03:33:00;99493.16;;;14.79;100.00
63607;BME280;51327;52.466;-1.938;2022-08-19T03:35:28;99500.88;;;14.73;100.00
63607;BME280;51327;52.466;-1.938;2022-08-19T03:37:54;99446.19;;;14.32;100.00
63607;BME280;51327;52.466;-1.938;2022-08-19T03:40:21;99504.78;;;14.59;100.00
63607;BME280;51327;52.466;-1.938;2022-08-19T03:42:49;99508.47;;;14.58;100.00
63607;BME280;51327;52.466;-1.938;2022-08-19T03:45:17;99512.13;;;14.57;100.00
63607;BME280;51327;52.466;-1.938;2022-08-19T03:47:45;99517.59;;;14.55;100.00
63607;BME280;51327;52.466;-1.938;2022-08-19T03:50:15;99523.34;;;14.51;100.00
63607;BME280;51327;52.466;-1.938;2022-08-19T03:52:47;99521.94;;;14.47;100.00
63607;BME280;51327;52.466;-1.938;2022-08-19T03:55:12;99527.53;;;14.44;100.00
63607;BME280;51327;52.466;-1.938;2022-08-19T03:57:38;99524.13;;;14.41;100.00
63607;BME280;51327;52.466;-1.938;2022-08-19T04:00:05;99525.97;;;14.41;100.00
63607;BME280;51327;52.466;-1.938;2022-08-19T04:02:34;99523.41;;;14.39;100.00
63607;BME280;51327;52.466;-1.938;2022-08-19T04:05:02;99521.25;;;14.33;100.00
63607;BME280;51327;52.466;-1.938;2022-08-19T04:07:29;99522.63;;;14.28;100.00
63607;BME280;51327;52.466;-1.938;2022-08-19T04:09:57;99521.06;;;14.25;100.00
63607;BME280;51327;52.466;-1.938;2022-08-19T04:12:22;99526.69;;;14.22;100.00
63607;BME280;51327;52.466;-1.938;2022-08-19T04:14:48;99538.66;;;14.18;100.00
63607;BME280;51327;52.466;-1.938;2022-08-19T04:17:15;99539.78;;;14.15;100.00
63607;BME280;51327;52.466;-1.938;2022-08-19T04:19:42;99539.06;;;14.13;100.00
63607;BME280;51327;52.466;-1.938;2022-08-19T04:22:08;99541.84;;;14.12;100.00
63607;BME280;51327;52.466;-1.938;2022-08-19T04:24:34;99540.28;;;14.09;100.00
63607;BME280;51327;52.466;-1.938;2022-08-19T04:27:02;99534.44;;;14.04;100.00
63607;BME280;51327;52.466;-1.938;2022-08-19T04:29:33;99544.59;;;14.00;100.00
63607;BME280;51327;52.466;-1.938;2022-08-19T04:32:00;99553.28;;;13.93;100.00
63607;BME280;51327;52.466;-1.938;2022-08-19T04:34:29;99558.19;;;13.88;100.00
63607;BME280;51327;52.466;-1.938;2022-08-19T04:36:55;99554.16;;;13.82;100.00
63607;BME280;51327;52.466;-1.938;2022-08-19T04:39:23;99558.81;;;13.80;100.00
63607;BME280;51327;52.466;-1.938;2022-08-19T04:42:10;99560.63;;;13.79;100.00
63607;BME280;51327;52.466;-1.938;2022-08-19T04:44:57;99563.22;;;13.81;100.00
63607;BME280;51327;52.466;-1.938;2022-08-19T04:47:25;99562.59;;;13.77;100.00
63607;BME280;51327;52.466;-1.938;2022-08-19T04:49:53;99565.41;;;13.76;100.00
63607;BME280;51327;52.466;-1.938;2022-08-19T04:52:18;99568.22;;;13.74;100.00
63607;BME280;51327;52.466;-1.938;2022-08-19T04:54:44;99579.06;;;13.73;100.00
63607;BME280;51327;52.466;-1.938;2022-08-19T04:57:11;99587.38;;;13.70;100.00
63607;BME280;51327;52.466;-1.938;2022-08-19T04:59:39;99588.50;;;13.67;100.00
63607;BME280;51327;52.466;-1.938;2022-08-19T05:02:04;99589.44;;;13.66;100.00
63607;BME280;51327;52.466;-1.938;2022-08-19T05:04:31;99580.66;;;13.64;100.00
63607;BME280;51327;52.466;-1.938;2022-08-19T05:06:59;99581.78;;;13.62;100.00
63607;BME280;51327;52.466;-1.938;2022-08-19T05:09:28;99590.09;;;13.58;100.00
63607;BME280;51327;52.466;-1.938;2022-08-19T05:11:55;99587.88;;;13.52;100.00
63607;BME280;51327;52.466;-1.938;2022-08-19T05:14:21;99591.66;;;13.50;100.00
63607;BME280;51327;52.466;-1.938;2022-08-19T05:16:46;99601.91;;;13.45;100.00
63607;BME280;51327;52.466;-1.938;2022-08-19T05:19:14;99611.28;;;13.39;100.00
63607;BME280;51327;52.466;-1.938;2022-08-19T05:22:04;99615.94;;;13.37;100.00
63607;BME280;51327;52.466;-1.938;2022-08-19T05:24:51;99611.56;;;13.36;100.00
63607;BME280;51327;52.466;-1.938;2022-08-19T05:27:18;99623.22;;;13.35;100.00
63607;BME280;51327;52.466;-1.938;2022-08-19T05:29:44;99625.31;;;13.31;100.00
63607;BME280;51327;52.466;-1.938;2022-08-19T05:32:09;99613.19;;;13.26;100.00
63607;BME280;51327;52.466;-1.938;2022-08-19T05:34:37;99615.03;;;13.25;100.00
63607;BME280;51327;52.466;-1.938;2022-08-19T05:37:03;99611.41;;;13.26;100.00
63607;BME280;51327;52.466;-1.938;2022-08-19T05:39:30;99615.88;;;13.26;100.00
63607;BME280;51327;52.466;-1.938;2022-08-19T05:42:03;99625.53;;;13.28;100.00
63607;BME280;51327;52.466;-1.938;2022-08-19T05:44:36;99638.00;;;13.29;100.00
63607;BME280;51327;52.466;-1.938;2022-08-19T05:47:04;99629.09;;;13.29;100.00
63607;BME280;51327;52.466;-1.938;2022-08-19T05:49:34;99636.91;;;13.32;100.00
63607;BME280;51327;52.466;-1.938;2022-08-19T05:52:06;99632.28;;;13.34;100.00
63607;BME280;51327;52.466;-1.938;2022-08-19T05:54:34;99633.84;;;13.36;100.00
63607;BME280;51327;52.466;-1.938;2022-08-19T05:57:03;99645.31;;;13.39;100.00
63607;BME280;51327;52.466;-1.938;2022-08-19T05:59:30;99643.25;;;13.42;100.00
63607;BME280;51327;52.466;-1.938;2022-08-19T06:01:58;99648.38;;;13.45;100.00
63607;BME280;51327;52.466;-1.938;2022-08-19T06:04:27;99647.28;;;13.48;100.00
63607;BME280;51327;52.466;-1.938;2022-08-19T06:06:53;99647.91;;;13.51;100.00
63607;BME280;51327;52.466;-1.938;2022-08-19T06:09:20;99637.75;;;13.55;100.00
63607;BME280;51327;52.466;-1.938;2022-08-19T06:11:49;99643.00;;;13.56;100.00
63607;BME280;51327;52.466;-1.938;2022-08-19T06:14:19;99655.44;;;13.57;100.00
63607;BME280;51327;52.466;-1.938;2022-08-19T06:16:46;99650.94;;;13.58;100.00
63607;BME280;51327;52.466;-1.938;2022-08-19T06:19:15;99651.66;;;13.60;100.00
63607;BME280;51327;52.466;-1.938;2022-08-19T06:21:42;99660.44;;;13.62;100.00
63607;BME280;51327;52.466;-1.938;2022-08-19T06:24:10;99663.13;;;13.62;100.00
63607;BME280;51327;52.466;-1.938;2022-08-19T06:26:39;99643.38;;;13.63;100.00
63607;BME280;51327;52.466;-1.938;2022-08-19T06:29:06;99661.16;;;13.64;100.00
63607;BME280;51327;52.466;-1.938;2022-08-19T06:31:32;99660.06;;;13.67;100.00
63607;BME280;51327;52.466;-1.938;2022-08-19T06:34:01;99653.75;;;13.68;99.66
63607;BME280;51327;52.466;-1.938;2022-08-19T06:36:33;99667.88;;;13.70;99.15
63607;BME280;51327;52.466;-1.938;2022-08-19T06:39:05;99652.63;;;13.70;98.15
63607;BME280;51327;52.466;-1.938;2022-08-19T06:41:34;99664.09;;;13.72;97.74
63607;BME280;51327;52.466;-1.938;2022-08-19T06:44:02;99668.47;;;13.73;96.70
63607;BME280;51327;52.466;-1.938;2022-08-19T06:46:29;99668.38;;;13.75;95.89
63607;BME280;51327;52.466;-1.938;2022-08-19T06:48:58;99663.72;;;13.77;95.67
63607;BME280;51327;52.466;-1.938;2022-08-19T06:51:23;99674.22;;;13.80;95.54
63607;BME280;51327;52.466;-1.938;2022-08-19T06:53:49;99674.84;;;13.84;94.67
63607;BME280;51327;52.466;-1.938;2022-08-19T06:56:18;99680.78;;;13.87;94.28
63607;BME280;51327;52.466;-1.938;2022-08-19T06:58:47;99673.25;;;13.92;94.22
63607;BME280;51327;52.466;-1.938;2022-08-19T07:01:18;99678.25;;;13.97;93.32
63607;BME280;51327;52.466;-1.938;2022-08-19T07:03:46;99684.34;;;13.99;92.63
63607;BME280;51327;52.466;-1.938;2022-08-19T07:06:13;99684.09;;;14.02;91.43
63607;BME280;51327;52.466;-1.938;2022-08-19T07:08:40;99684.69;;;14.06;90.88
63607;BME280;51327;52.466;-1.938;2022-08-19T07:11:11;99686.13;;;14.10;89.66
63607;BME280;51327;52.466;-1.938;2022-08-19T07:13:40;99682.13;;;14.15;89.48
63607;BME280;51327;52.466;-1.938;2022-08-19T07:16:12;99684.41;;;14.20;88.98
63607;BME280;51327;52.466;-1.938;2022-08-19T07:18:40;99691.00;;;14.27;88.64
63607;BME280;51327;52.466;-1.938;2022-08-19T07:21:07;99698.56;;;14.33;88.32
63607;BME280;51327;52.466;-1.938;2022-08-19T07:23:33;99705.34;;;14.37;87.63
63607;BME280;51327;52.466;-1.938;2022-08-19T07:26:07;99707.81;;;14.40;86.98
63607;BME280;51327;52.466;-1.938;2022-08-19T07:28:33;99712.09;;;14.43;86.38
63607;BME280;51327;52.466;-1.938;2022-08-19T07:30:58;99709.84;;;14.48;85.82
63607;BME280;51327;52.466;-1.938;2022-08-19T07:33:25;99714.00;;;14.52;84.86
63607;BME280;51327;52.466;-1.938;2022-08-19T07:35:53;99713.66;;;14.57;85.17
63607;BME280;51327;52.466;-1.938;2022-08-19T07:38:21;99711.44;;;14.62;84.86
63607;BME280;51327;52.466;-1.938;2022-08-19T07:40:49;99717.31;;;14.67;84.37
63607;BME280;51327;52.466;-1.938;2022-08-19T07:43:16;99704.31;;;14.72;83.59
63607;BME280;51327;52.466;-1.938;2022-08-19T07:45:45;99713.84;;;14.76;83.17
63607;BME280;51327;52.466;-1.938;2022-08-19T07:48:14;99706.13;;;14.83;82.32
63607;BME280;51327;52.466;-1.938;2022-08-19T07:50:41;99716.34;;;14.89;82.04
63607;BME280;51327;52.466;-1.938;2022-08-19T07:53:07;99714.13;;;14.94;81.49
63607;BME280;51327;52.466;-1.938;2022-08-19T07:55:32;99717.13;;;15.01;81.35
63607;BME280;51327;52.466;-1.938;2022-08-19T07:58:01;99716.63;;;15.07;79.97
63607;BME280;51327;52.466;-1.938;2022-08-19T08:00:28;99727.84;;;15.12;80.50
63607;BME280;51327;52.466;-1.938;2022-08-19T08:02:56;99714.00;;;15.17;79.09
63607;BME280;51327;52.466;-1.938;2022-08-19T08:05:23;99713.47;;;15.23;78.63
63607;BME280;51327;52.466;-1.938;2022-08-19T08:08:10;99706.19;;;15.35;78.88
63607;BME280;51327;52.466;-1.938;2022-08-19T08:11:14;99712.06;;;15.40;77.00
63607;BME280;51327;52.466;-1.938;2022-08-19T08:13:48;99710.19;;;15.40;77.00
63607;BME280;51327;52.466;-1.938;2022-08-19T08:16:14;99710.94;;;15.42;76.38
63607;BME280;51327;52.466;-1.938;2022-08-19T08:18:40;99713.34;;;15.45;75.70
63607;BME280;51327;52.466;-1.938;2022-08-19T08:21:09;99723.59;;;15.52;74.55
63607;BME280;51327;52.466;-1.938;2022-08-19T08:23:36;99719.03;;;15.52;72.25
63607;BME280;51327;52.466;-1.938;2022-08-19T08:26:02;99730.41;;;15.56;71.68
63607;BME280;51327;52.466;-1.938;2022-08-19T08:28:29;99730.84;;;15.61;70.75
63607;BME280;51327;52.466;-1.938;2022-08-19T08:30:57;99733.88;;;15.68;70.76
63607;BME280;51327;52.466;-1.938;2022-08-19T08:33:24;99740.06;;;15.79;70.40
63607;BME280;51327;52.466;-1.938;2022-08-19T08:35:56;99734.44;;;15.92;70.87
63607;BME280;51327;52.466;-1.938;2022-08-19T08:38:27;99729.66;;;16.05;70.08
63607;BME280;51327;52.466;-1.938;2022-08-19T08:41:07;99726.44;;;16.21;69.28
63607;BME280;51327;52.466;-1.938;2022-08-19T08:43:39;99733.31;;;16.35;69.05
63607;BME280;51327;52.466;-1.938;2022-08-19T08:46:13;99719.16;;;16.43;68.12
63607;BME280;51327;52.466;-1.938;2022-08-19T08:51:13;99719.16;;;16.53;67.81
63607;BME280;51327;52.466;-1.938;2022-08-19T08:53:42;99726.28;;;16.63;66.45
63607;BME280;51327;52.466;-1.938;2022-08-19T08:56:10;99728.53;;;16.68;65.73
63607;BME280;51327;52.466;-1.938;2022-08-19T09:01:25;99730.81;;;16.73;65.17
63607;BME280;51327;52.466;-1.938;2022-08-19T09:03:52;99718.38;;;16.81;65.29
63607;BME280;51327;52.466;-1.938;2022-08-19T09:06:26;99733.69;;;17.00;65.12
63607;BME280;51327;52.466;-1.938;2022-08-19T09:17:03;99743.91;;;17.36;63.58
63607;BME280;51327;52.466;-1.938;2022-08-19T09:19:30;99736.94;;;17.43;64.53
63607;BME280;51327;52.466;-1.938;2022-08-19T09:21:56;99736.50;;;17.47;63.64
63607;BME280;51327;52.466;-1.938;2022-08-19T09:24:26;99737.47;;;17.56;63.36
63607;BME280;51327;52.466;-1.938;2022-08-19T09:26:54;99727.91;;;17.71;62.92
63607;BME280;51327;52.466;-1.938;2022-08-19T09:29:24;99735.13;;;17.81;62.55
63607;BME280;51327;52.466;-1.938;2022-08-19T09:32:10;99740.25;;;17.84;62.20
63607;BME280;51327;52.466;-1.938;2022-08-19T09:34:35;99734.72;;;17.85;62.94
63607;BME280;51327;52.466;-1.938;2022-08-19T09:37:03;99736.81;;;17.91;61.77
63607;BME280;51327;52.466;-1.938;2022-08-19T09:39:30;99737.69;;;17.92;61.14
63607;BME280;51327;52.466;-1.938;2022-08-19T09:41:58;99739.78;;;17.98;61.89
63607;BME280;51327;52.466;-1.938;2022-08-19T09:44:23;99742.72;;;18.05;61.11
63607;BME280;51327;52.466;-1.938;2022-08-19T09:46:49;99745.00;;;18.09;61.66
63607;BME280;51327;52.466;-1.938;2022-08-19T09:49:18;99743.91;;;18.30;61.47
63607;BME280;51327;52.466;-1.938;2022-08-19T09:51:46;99744.41;;;18.43;60.71
63607;BME280;51327;52.466;-1.938;2022-08-19T09:54:16;99748.88;;;18.52;59.99
63607;BME280;51327;52.466;-1.938;2022-08-19T09:56:43;99756.56;;;18.57;60.39
63607;BME280;51327;52.466;-1.938;2022-08-19T09:59:09;99755.16;;;18.53;60.12
63607;BME280;51327;52.466;-1.938;2022-08-19T10:01:37;99761.72;;;18.50;60.15
63607;BME280;51327;52.466;-1.938;2022-08-19T10:04:04;99765.44;;;18.49;59.69
63607;BME280;51327;52.466;-1.938;2022-08-19T10:06:36;99732.63;;;18.34;59.25
63607;BME280;51327;52.466;-1.938;2022-08-19T10:09:06;99756.09;;;18.62;58.78
63607;BME280;51327;52.466;-1.938;2022-08-19T10:11:34;99751.91;;;18.77;58.30
63607;BME280;51327;52.466;-1.938;2022-08-19T10:14:02;99748.50;;;18.93;57.26
63607;BME280;51327;52.466;-1.938;2022-08-19T10:16:30;99754.75;;;18.93;54.64
63607;BME280;51327;52.466;-1.938;2022-08-19T10:18:58;99751.09;;;18.67;54.81
63607;BME280;51327;52.466;-1.938;2022-08-19T10:21:30;99749.41;;;18.38;55.14
63607;BME280;51327;52.466;-1.938;2022-08-19T10:23:59;99755.97;;;18.08;55.08
63607;BME280;51327;52.466;-1.938;2022-08-19T10:26:28;99754.28;;;17.97;55.56
63607;BME280;51327;52.466;-1.938;2022-08-19T10:28:56;99744.03;;;18.01;55.73
63607;BME280;51327;52.466;-1.938;2022-08-19T10:31:26;99748.97;;;18.15;55.99
63607;BME280;51327;52.466;-1.938;2022-08-19T10:33:54;99751.16;;;18.29;54.86
63607;BME280;51327;52.466;-1.938;2022-08-19T10:36:35;99748.81;;;18.44;54.80
63607;BME280;51327;52.466;-1.938;2022-08-19T10:39:02;99747.63;;;18.74;54.48
63607;BME280;51327;52.466;-1.938;2022-08-19T10:41:34;99748.38;;;18.94;53.56
63607;BME280;51327;52.466;-1.938;2022-08-19T10:44:01;99745.47;;;18.96;54.15
63607;BME280;51327;52.466;-1.938;2022-08-19T10:46:28;99734.38;;;18.99;53.83
63607;BME280;51327;52.466;-1.938;2022-08-19T10:48:59;99739.47;;;19.02;54.43
63607;BME280;51327;52.466;-1.938;2022-08-19T10:51:27;99742.03;;;19.04;53.96
63607;BME280;51327;52.466;-1.938;2022-08-19T10:54:13;99748.50;;;19.11;54.49
63607;BME280;51327;52.466;-1.938;2022-08-19T10:56:41;99748.63;;;19.27;54.21
63607;BME280;51327;52.466;-1.938;2022-08-19T10:59:34;99747.06;;;19.43;53.84
63607;BME280;51327;52.466;-1.938;2022-08-19T11:02:01;99741.44;;;19.62;54.19
63607;BME280;51327;52.466;-1.938;2022-08-19T11:04:27;99746.56;;;19.91;53.03
63607;BME280;51327;52.466;-1.938;2022-08-19T11:06:55;99740.84;;;19.94;52.53
63607;BME280;51327;52.466;-1.938;2022-08-19T11:09:21;99742.22;;;19.98;52.24
63607;BME280;51327;52.466;-1.938;2022-08-19T11:11:49;99735.63;;;20.01;52.02
63607;BME280;51327;52.466;-1.938;2022-08-19T11:14:19;99739.19;;;20.01;52.64
63607;BME280;51327;52.466;-1.938;2022-08-19T11:16:46;99736.47;;;20.01;52.47
63607;BME280;51327;52.466;-1.938;2022-08-19T11:19:12;99739.41;;;20.16;52.04
63607;BME280;51327;52.466;-1.938;2022-08-19T11:21:41;99744.03;;;20.24;52.10
63607;BME280;51327;52.466;-1.938;2022-08-19T11:24:10;99745.72;;;20.25;51.92
63607;BME280;51327;52.466;-1.938;2022-08-19T11:26:38;99743.28;;;20.14;52.05
63607;BME280;51327;52.466;-1.938;2022-08-19T11:29:06;99734.53;;;19.86;51.58
63607;BME280;51327;52.466;-1.938;2022-08-19T11:31:42;99725.63;;;19.49;51.20
63607;BME280;51327;52.466;-1.938;2022-08-19T11:34:09;99732.41;;;19.27;52.34
63607;BME280;51327;52.466;-1.938;2022-08-19T11:36:40;99728.28;;;19.23;52.99
63607;BME280;51327;52.466;-1.938;2022-08-19T11:39:10;99724.63;;;19.32;53.23
63607;BME280;51327;52.466;-1.938;2022-08-19T11:41:51;99727.84;;;19.54;52.65
63607;BME280;51327;52.466;-1.938;2022-08-19T11:44:20;99715.72;;;19.84;52.23
63607;BME280;51327;52.466;-1.938;2022-08-19T11:46:56;99726.13;;;20.05;52.59
63607;BME280;51327;52.466;-1.938;2022-08-19T11:49:46;99727.91;;;20.22;51.29
63607;BME280;51327;52.466;-1.938;2022-08-19T11:52:16;99724.88;;;20.26;51.17
63607;BME280;51327;52.466;-1.938;2022-08-19T11:54:41;99723.03;;;20.26;50.76
63607;BME280;51327;52.466;-1.938;2022-08-19T11:57:25;99728.59;;;20.24;50.46
63607;BME280;51327;52.466;-1.938;2022-08-19T12:00:30;99741.34;;;20.32;51.46
63607;BME280;51327;52.466;-1.938;2022-08-19T12:03:20;99725.19;;;20.57;50.66
63607;BME280;51327;52.466;-1.938;2022-08-19T12:06:14;99722.88;;;20.78;49.89
63607;BME280;51327;52.466;-1.938;2022-08-19T12:09:08;99733.22;;;20.99;49.43
63607;BME280;51327;52.466;-1.938;2022-08-19T12:11:44;99722.19;;;21.09;48.56
63607;BME280;51327;52.466;-1.938;2022-08-19T12:14:11;99734.94;;;21.25;48.37
63607;BME280;51327;52.466;-1.938;2022-08-19T12:16:38;99735.63;;;21.35;47.98
63607;BME280;51327;52.466;-1.938;2022-08-19T12:19:08;99705.22;;;21.40;48.38
63607;BME280;51327;52.466;-1.938;2022-08-19T12:21:34;99731.00;;;21.68;47.77
63607;BME280;51327;52.466;-1.938;2022-08-19T12:24:00;99730.31;;;21.83;48.19
63607;BME280;51327;52.466;-1.938;2022-08-19T12:26:29;99728.75;;;21.88;47.21
63607;BME280;51327;52.466;-1.938;2022-08-19T12:28:56;99732.03;;;21.76;46.30
63607;BME280;51327;52.466;-1.938;2022-08-19T12:31:25;99743.94;;;21.50;47.29
63607;BME280;51327;52.466;-1.938;2022-08-19T12:33:52;99743.78;;;21.35;47.63
63607;BME280;51327;52.466;-1.938;2022-08-19T12:36:18;99741.41;;;21.24;47.49
63607;BME280;51327;52.466;-1.938;2022-08-19T12:38:43;99742.03;;;21.10;47.60
63607;BME280;51327;52.466;-1.938;2022-08-19T12:41:12;99749.38;;;21.01;48.39
63607;BME280;51327;52.466;-1.938;2022-08-19T12:43:38;99745.97;;;20.99;47.81
63607;BME280;51327;52.466;-1.938;2022-08-19T12:46:04;99743.41;;;20.97;47.45
63607;BME280;51327;52.466;-1.938;2022-08-19T12:48:32;99746.47;;;21.02;47.30
63607;BME280;51327;52.466;-1.938;2022-08-19T12:50:59;99745.78;;;21.09;46.89
63607;BME280;51327;52.466;-1.938;2022-08-19T12:53:34;99736.97;;;21.31;47.82
63607;BME280;51327;52.466;-1.938;2022-08-19T12:56:01;99746.50;;;21.52;46.73
63607;BME280;51327;52.466;-1.938;2022-08-19T12:58:29;99740.75;;;21.46;46.39
63607;BME280;51327;52.466;-1.938;2022-08-19T13:00:56;99753.13;;;21.41;46.28
63607;BME280;51327;52.466;-1.938;2022-08-19T13:03:24;99752.25;;;21.32;46.43
63607;BME280;51327;52.466;-1.938;2022-08-19T13:05:56;99750.56;;;21.15;45.85
63607;BME280;51327;52.466;-1.938;2022-08-19T13:08:23;99751.56;;;21.05;46.13
63607;BME280;51327;52.466;-1.938;2022-08-19T13:10:49;99748.00;;;20.97;46.80